createdAt,value
2023-05-05T00:00:15.583Z,9.03
2023-05-05T00:02:15.691Z,8.97
2023-05-05T00:05:37.052Z,9.06
2023-05-05T00:07:37.136Z,9.06
2023-05-05T00:09:37.104Z,9.05
2023-05-05T00:11:37.389Z,8.95
2023-05-05T00:13:37.194Z,9.1
2023-05-05T00:15:37.323Z,9.13
2023-05-05T00:17:36.996Z,9.13
2023-05-05T00:20:17.102Z,9.14
2023-05-05T00:22:17.156Z,9.17
2023-05-05T00:24:17.122Z,9.15
2023-05-05T00:26:17.140Z,9.15
2023-05-05T00:28:17.156Z,9.05
2023-05-05T00:30:17.126Z,8.98
2023-05-05T00:32:17.090Z,9.05
2023-05-05T00:34:17.183Z,9.01
2023-05-05T00:35:39.991Z,9.03
2023-05-05T00:37:40.024Z,9.11
2023-05-05T00:39:40.039Z,9.21
2023-05-05T00:41:40.037Z,9.11
2023-05-05T00:43:40.041Z,9.11
2023-05-05T00:45:40.005Z,9.14
2023-05-05T00:47:39.998Z,9.16
2023-05-05T00:50:57.158Z,9.15
2023-05-05T00:52:57.133Z,9.06
2023-05-05T00:54:57.159Z,9.07
2023-05-05T00:56:57.113Z,9.04
2023-05-05T00:58:57.154Z,9
2023-05-05T01:00:57.167Z,8.92
2023-05-05T01:02:57.261Z,8.94
2023-05-05T01:06:30.351Z,8.98
2023-05-05T01:08:30.108Z,8.91
2023-05-05T01:10:30.131Z,8.92
2023-05-05T01:12:30.436Z,8.85
2023-05-05T01:14:30.480Z,8.73
2023-05-05T01:16:30.120Z,8.67
2023-05-05T01:18:30.186Z,8.71
2023-05-05T01:21:50.397Z,8.76
2023-05-05T01:23:50.318Z,8.74
2023-05-05T01:25:50.454Z,8.67
2023-05-05T01:27:50.375Z,8.66
2023-05-05T01:29:50.530Z,8.69
2023-05-05T01:31:50.547Z,8.65
2023-05-05T01:33:50.322Z,8.54
2023-05-05T01:36:03.962Z,8.54
2023-05-05T01:38:03.910Z,8.58
2023-05-05T01:40:03.915Z,8.52
2023-05-05T01:42:03.990Z,8.61
2023-05-05T01:44:03.918Z,8.52
2023-05-05T01:46:03.907Z,8.52
2023-05-05T01:48:04.043Z,8.51
2023-05-05T01:50:03.896Z,8.49
2023-05-05T01:52:03.308Z,8.53
2023-05-05T01:54:03.380Z,8.56
2023-05-05T01:56:03.289Z,8.56
2023-05-05T01:58:03.399Z,8.7
2023-05-05T02:00:03.283Z,8.66
2023-05-05T02:02:03.465Z,8.68
2023-05-05T02:04:03.306Z,8.57
2023-05-05T02:06:43.794Z,8.64
2023-05-05T02:08:43.709Z,8.58
2023-05-05T02:10:43.718Z,8.54
2023-05-05T02:12:43.802Z,8.56
2023-05-05T02:14:43.731Z,8.58
2023-05-05T02:16:43.704Z,8.68
2023-05-05T02:18:43.720Z,8.81
2023-05-05T02:21:53.368Z,8.86
2023-05-05T02:23:53.054Z,8.96
2023-05-05T02:25:53.178Z,8.96
2023-05-05T02:27:53.154Z,9.03
2023-05-05T02:29:53.793Z,9
2023-05-05T02:31:53.171Z,9.04
2023-05-05T02:33:53.131Z,9.13
2023-05-05T02:37:39.874Z,9.21
2023-05-05T02:39:40.021Z,9.08
2023-05-05T02:41:39.852Z,9.21
2023-05-05T02:43:40.061Z,9.29
2023-05-05T02:45:40.220Z,9.31
2023-05-05T02:47:39.850Z,9.33
2023-05-05T02:49:39.861Z,9.34
2023-05-05T02:52:48.091Z,9.41
2023-05-05T02:54:48.025Z,9.42
2023-05-05T02:56:48.037Z,9.58
2023-05-05T02:58:48.020Z,9.57
2023-05-05T03:00:48.092Z,9.66
2023-05-05T03:02:48.038Z,9.58
2023-05-05T03:04:48.001Z,9.59
2023-05-05T03:07:14.979Z,9.63
2023-05-05T03:09:15.013Z,9.65
2023-05-05T03:11:15.058Z,9.76
2023-05-05T03:13:14.742Z,9.73
2023-05-05T03:15:14.711Z,9.71
2023-05-05T03:17:14.780Z,9.73
2023-05-05T03:19:14.704Z,9.88
2023-05-05T03:22:53.058Z,9.78
2023-05-05T03:24:53.087Z,9.85
2023-05-05T03:26:53.085Z,9.97
2023-05-05T03:28:53.171Z,9.98
2023-05-05T03:30:53.054Z,10
2023-05-05T03:32:53.043Z,10.09
2023-05-05T03:34:53.031Z,10.18
2023-05-05T03:37:59.254Z,10.64
2023-05-05T03:39:59.221Z,11.66
2023-05-05T03:41:59.266Z,12.06
2023-05-05T03:43:59.195Z,11.34
2023-05-05T03:45:59.288Z,10.83
2023-05-05T03:47:59.232Z,10.65
2023-05-05T03:49:59.192Z,10.52
2023-05-05T03:53:15.599Z,10.67
2023-05-05T03:55:15.597Z,14
2023-05-05T03:57:15.619Z,16.29
2023-05-05T03:59:15.609Z,17.72
2023-05-05T04:01:15.664Z,18.69
2023-05-05T04:03:15.795Z,19.53
2023-05-05T04:05:15.596Z,20.15
2023-05-05T04:07:50.839Z,20.91
2023-05-05T04:09:50.795Z,21.3
2023-05-05T04:11:50.817Z,21.45
2023-05-05T04:13:50.801Z,21.28
2023-05-05T04:15:50.874Z,21.02
2023-05-05T04:17:50.824Z,20.74
2023-05-05T04:19:50.817Z,20.28
2023-05-05T04:21:52.860Z,19.99
2023-05-05T04:22:55.482Z,19.83
2023-05-05T04:24:55.367Z,19.78
2023-05-05T04:26:55.437Z,19.14
2023-05-05T04:28:55.381Z,18.99
2023-05-05T04:30:55.396Z,19.89
2023-05-05T04:32:55.424Z,21.46
2023-05-05T04:34:55.386Z,22.98
2023-05-05T04:36:55.482Z,22.51
2023-05-05T04:38:26.268Z,23.11
2023-05-05T04:40:26.032Z,25.12
2023-05-05T04:42:26.023Z,26.78
2023-05-05T04:44:25.990Z,27.89
2023-05-05T04:46:26.073Z,25.85
2023-05-05T04:48:26.023Z,26.98
2023-05-05T04:50:26.022Z,28.6
2023-05-05T04:53:27.707Z,27.98
2023-05-05T04:55:27.713Z,27.29
2023-05-05T04:57:27.690Z,26.55
2023-05-05T04:59:27.731Z,26.96
2023-05-05T05:01:27.723Z,26.29
2023-05-05T05:03:27.843Z,25.41
2023-05-05T05:05:27.673Z,25.25
2023-05-05T05:08:31.474Z,24.28
2023-05-05T05:10:31.555Z,23.94
2023-05-05T05:12:31.457Z,22.25
2023-05-05T05:14:31.560Z,21.77
2023-05-05T05:16:31.498Z,21.34
2023-05-05T05:18:31.518Z,20.33
2023-05-05T05:20:31.451Z,19.63
2023-05-05T05:22:31.482Z,20.42
2023-05-05T05:24:12.542Z,20.53
2023-05-05T05:26:12.576Z,20.77
2023-05-05T05:28:12.509Z,20.88
2023-05-05T05:30:12.502Z,20.67
2023-05-05T05:32:12.551Z,20.8
2023-05-05T05:34:12.987Z,20.47
2023-05-05T05:36:12.624Z,20.66
2023-05-05T05:39:03.437Z,21.41
2023-05-05T05:41:03.460Z,21.56
2023-05-05T05:43:03.424Z,21.46
2023-05-05T05:45:03.386Z,20.17
2023-05-05T05:47:03.401Z,19.78
2023-05-05T05:49:03.538Z,20.13
2023-05-05T05:51:03.362Z,20.75
2023-05-05T05:54:26.344Z,19.9
2023-05-05T05:56:26.380Z,20.56
2023-05-05T05:58:26.309Z,20.27
2023-05-05T06:00:26.469Z,20.82
2023-05-05T06:02:26.290Z,21.3
2023-05-05T06:04:26.442Z,21.07
2023-05-05T06:06:26.318Z,20.6
2023-05-05T06:09:05.543Z,19.22
2023-05-05T06:11:05.541Z,19.12
2023-05-05T06:13:05.583Z,18.89
2023-05-05T06:15:05.526Z,20.05
2023-05-05T06:17:05.586Z,19.74
2023-05-05T06:19:05.549Z,19.96
2023-05-05T06:21:05.655Z,19.82
2023-05-05T06:23:05.578Z,19.59
2023-05-05T06:24:53.971Z,19.29
2023-05-05T06:26:53.979Z,18.44
2023-05-05T06:28:54.079Z,18.6
2023-05-05T06:30:53.976Z,18.11
2023-05-05T06:32:54.029Z,17.97
2023-05-05T06:34:54.350Z,18.38
2023-05-05T06:36:54.153Z,19.37
2023-05-05T06:39:56.373Z,19.02
2023-05-05T06:41:56.344Z,18.36
2023-05-05T06:43:56.508Z,19.2
2023-05-05T06:45:56.374Z,19.66
2023-05-05T06:47:56.470Z,19.07
2023-05-05T06:49:56.418Z,19.68
2023-05-05T06:51:56.441Z,20.1
2023-05-05T06:54:45.163Z,19.27
2023-05-05T06:56:45.146Z,18.87
2023-05-05T06:58:45.046Z,18.19
2023-05-05T07:00:44.975Z,19.51
2023-05-05T07:02:45.190Z,19.5
2023-05-05T07:04:45.143Z,19.32
2023-05-05T07:06:44.972Z,19.79
2023-05-05T07:08:45.036Z,18.45
2023-05-05T07:10:15.064Z,18.88
2023-05-05T07:12:14.966Z,19.14
2023-05-05T07:14:15.101Z,18.38
2023-05-05T07:16:15.303Z,18.47
2023-05-05T07:18:15.065Z,18.56
2023-05-05T07:20:15.022Z,18.2
2023-05-05T07:22:14.986Z,18.5
2023-05-05T07:25:01.741Z,18.23
2023-05-05T07:27:01.515Z,18.32
2023-05-05T07:29:01.555Z,17.97
2023-05-05T07:31:01.782Z,18.7
2023-05-05T07:33:01.517Z,19.23
2023-05-05T07:35:01.600Z,19.54
2023-05-05T07:37:01.759Z,19.18
2023-05-05T07:39:01.727Z,19.51
2023-05-05T07:40:54.293Z,19.31
2023-05-05T07:42:54.604Z,20.07
2023-05-05T07:44:54.339Z,20.5
2023-05-05T07:46:54.269Z,20.94
2023-05-05T07:48:54.328Z,20.21
2023-05-05T07:50:54.390Z,18.85
2023-05-05T07:53:02.287Z,19.52
2023-05-05T07:55:22.345Z,19.99
2023-05-05T07:57:22.274Z,19.78
2023-05-05T07:59:22.295Z,19.74
2023-05-05T08:01:22.337Z,20.39
2023-05-05T08:03:22.409Z,20.8
2023-05-05T08:05:22.304Z,21.05
2023-05-05T08:07:22.448Z,20.68
2023-05-05T08:09:22.342Z,20.45
2023-05-05T08:10:55.433Z,20.35
2023-05-05T08:12:55.465Z,20.13
2023-05-05T08:14:55.648Z,20.6
2023-05-05T08:16:55.455Z,20.86
2023-05-05T08:18:55.443Z,20.55
2023-05-05T08:20:55.468Z,19.49
2023-05-05T08:22:55.731Z,19.65
2023-05-05T08:25:45.725Z,20.88
2023-05-05T08:27:45.696Z,20.5
2023-05-05T08:29:45.668Z,21.18
2023-05-05T08:31:45.760Z,21.15
2023-05-05T08:33:45.682Z,21.09
2023-05-05T08:35:45.740Z,20.8
2023-05-05T08:37:45.703Z,18.83
2023-05-05T08:39:45.795Z,19.56
2023-05-05T08:41:02.844Z,20.15
2023-05-05T08:43:02.791Z,20.24
2023-05-05T08:45:02.727Z,20.56
2023-05-05T08:47:02.862Z,20.34
2023-05-05T08:49:02.791Z,20.34
2023-05-05T08:51:05.349Z,21.11
2023-05-05T08:53:02.738Z,21.72
2023-05-05T08:56:10.659Z,22.15
2023-05-05T08:58:10.155Z,21.63
2023-05-05T09:00:10.060Z,20.91
2023-05-05T09:02:09.937Z,20.14
2023-05-05T09:04:09.878Z,20.91
2023-05-05T09:06:09.963Z,21.87
2023-05-05T09:08:09.867Z,22.25
2023-05-05T09:11:42.194Z,22.95
2023-05-05T09:13:41.980Z,20.97
2023-05-05T09:15:42.004Z,19.26
2023-05-05T09:17:42.101Z,19.82
2023-05-05T09:19:42.072Z,21.17
2023-05-05T09:21:41.994Z,22.52
2023-05-05T09:23:42.031Z,22.41
2023-05-05T09:26:43.191Z,20.87
2023-05-05T09:28:43.376Z,20.48
2023-05-05T09:30:43.242Z,21.85
2023-05-05T09:32:43.260Z,21.83
2023-05-05T09:34:43.170Z,21.88
2023-05-05T09:36:43.246Z,22.54
2023-05-05T09:38:43.277Z,23.15
2023-05-05T09:42:22.482Z,23.5
2023-05-05T09:44:22.666Z,23.14
2023-05-05T09:46:22.741Z,22.29
2023-05-05T09:48:22.686Z,22.07
2023-05-05T09:50:22.482Z,21.37
2023-05-05T09:52:22.597Z,20.81
2023-05-05T09:54:22.447Z,20.85
2023-05-05T09:57:26.762Z,20.91
2023-05-05T09:59:27.006Z,19.68
2023-05-05T10:01:26.815Z,19.25
2023-05-05T10:03:26.686Z,19.68
2023-05-05T10:05:27.098Z,20.18
2023-05-05T10:07:26.673Z,20.53
2023-05-05T10:09:26.721Z,20.31
2023-05-05T10:12:44.391Z,19.13
2023-05-05T10:14:44.486Z,20.42
2023-05-05T10:16:44.476Z,20.58
2023-05-05T10:18:44.351Z,19.94
2023-05-05T10:20:44.379Z,19.93
2023-05-05T10:22:44.434Z,19.78
2023-05-05T10:24:44.385Z,19.58
2023-05-05T10:27:51.165Z,20.19
2023-05-05T10:29:51.303Z,19.69
2023-05-05T10:31:51.194Z,19.59
2023-05-05T10:33:51.285Z,20.05
2023-05-05T10:35:51.195Z,21.21
2023-05-05T10:37:51.155Z,21.69
2023-05-05T10:39:51.274Z,20.58
2023-05-05T10:43:00.086Z,20.73
2023-05-05T10:45:00.206Z,20.3
2023-05-05T10:47:00.052Z,20.53
2023-05-05T10:49:00.273Z,20.42
2023-05-05T10:51:00.301Z,20.16
2023-05-05T10:53:00.105Z,21.08
2023-05-05T10:55:00.436Z,20.98
2023-05-05T10:57:23.116Z,20.52
2023-05-05T10:59:23.155Z,21.06
2023-05-05T11:01:23.243Z,21.18
2023-05-05T11:03:23.221Z,20.86
2023-05-05T11:05:23.180Z,20.1
2023-05-05T11:07:23.073Z,20.57
2023-05-05T11:09:23.077Z,20.46
2023-05-05T11:11:23.100Z,20.5
2023-05-05T11:12:33.451Z,20.69
2023-05-05T11:14:33.284Z,20.23
2023-05-05T11:16:33.507Z,20.9
2023-05-05T11:18:33.280Z,20.8
2023-05-05T11:20:33.297Z,19.71
2023-05-05T11:22:33.346Z,19.78
2023-05-05T11:24:33.399Z,19.72
2023-05-05T11:26:33.282Z,19.15
2023-05-05T11:28:13.805Z,20.28
2023-05-05T11:30:13.863Z,20.29
2023-05-05T11:32:13.990Z,19.54
2023-05-05T11:34:13.790Z,19.79
2023-05-05T11:36:13.808Z,18.99
2023-05-05T11:38:13.776Z,18.82
2023-05-05T11:40:13.801Z,19.56
2023-05-05T11:43:01.458Z,20.49
2023-05-05T11:45:01.449Z,20.77
2023-05-05T11:47:01.415Z,20.18
2023-05-05T11:49:01.403Z,20.56
2023-05-05T11:51:01.447Z,20.87
2023-05-05T11:53:01.411Z,21.45
2023-05-05T11:55:01.395Z,21.08
2023-05-05T11:58:33.363Z,20.68
2023-05-05T12:00:33.441Z,19.63
2023-05-05T12:02:33.398Z,19.52
2023-05-05T12:04:33.726Z,20.51
2023-05-05T12:06:33.296Z,20.46
2023-05-05T12:08:33.421Z,19.99
2023-05-05T12:10:33.811Z,19.44
2023-05-05T12:13:31.037Z,19.46
2023-05-05T12:15:30.960Z,19.15
2023-05-05T12:17:30.929Z,19.16
2023-05-05T12:19:31.075Z,18.74
2023-05-05T12:21:31.074Z,18.54
2023-05-05T12:23:31.056Z,18.39
2023-05-05T12:25:31.174Z,18.62
2023-05-05T12:29:14.757Z,18.99
2023-05-05T12:31:14.889Z,19.59
2023-05-05T12:33:14.956Z,19.34
2023-05-05T12:35:14.731Z,19.08
2023-05-05T12:37:14.865Z,19.35
2023-05-05T12:39:14.652Z,19.27
2023-05-05T12:41:14.808Z,19.27
2023-05-05T12:44:15.628Z,19.47
2023-05-05T12:46:15.877Z,19.07
2023-05-05T12:48:15.891Z,19.13
2023-05-05T12:50:15.642Z,19.79
2023-05-05T12:52:15.635Z,19.93
2023-05-05T12:54:15.776Z,19.68
2023-05-05T12:56:15.708Z,19.86
2023-05-05T12:59:12.766Z,19.23
2023-05-05T13:01:12.812Z,19.6
2023-05-05T13:03:12.866Z,19.98
2023-05-05T13:05:12.736Z,19.8
2023-05-05T13:07:12.825Z,19.84
2023-05-05T13:09:12.859Z,19.39
2023-05-05T13:11:12.809Z,19.77
2023-05-05T13:14:45.626Z,19.86
2023-05-05T13:16:45.571Z,19.95
2023-05-05T13:18:45.765Z,20.12
2023-05-05T13:20:45.700Z,19.77
2023-05-05T13:22:45.612Z,19.74
2023-05-05T13:24:52.075Z,19.22
2023-05-05T13:26:45.737Z,19.63
2023-05-05T13:29:25.192Z,19.39
2023-05-05T13:31:23.158Z,18.73
2023-05-05T13:33:23.040Z,18.59
2023-05-05T13:35:23.077Z,18.43
2023-05-05T13:37:23.194Z,18.68
2023-05-05T13:39:23.078Z,19.25
2023-05-05T13:41:23.033Z,18.92
2023-05-05T13:44:17.902Z,18.72
2023-05-05T13:46:19.951Z,18.54
2023-05-05T13:48:17.504Z,18.45
2023-05-05T13:50:17.453Z,18.27
2023-05-05T13:52:17.515Z,18.57
2023-05-05T13:54:17.501Z,18.39
2023-05-05T13:56:17.645Z,17.93
2023-05-05T13:58:17.466Z,18.18
2023-05-05T14:00:16.516Z,18.38
2023-05-05T14:02:16.480Z,18.54
2023-05-05T14:04:16.482Z,18.56
2023-05-05T14:06:16.502Z,18.7
2023-05-05T14:08:16.484Z,17.56
2023-05-05T14:10:16.438Z,17.78
2023-05-05T14:12:16.430Z,17.29
2023-05-05T14:15:15.268Z,18
2023-05-05T14:17:15.297Z,18.17
2023-05-05T14:19:15.234Z,18.31
2023-05-05T14:21:15.191Z,18.41
2023-05-05T14:23:15.182Z,17.94
2023-05-05T14:25:15.182Z,17.94
2023-05-05T14:27:15.206Z,18.39
2023-05-05T14:30:05.009Z,18.13
2023-05-05T14:32:04.919Z,18.47
2023-05-05T14:34:05.278Z,18.39
2023-05-05T14:36:05.166Z,18.04
2023-05-05T14:38:05.185Z,18.6
2023-05-05T14:40:05.710Z,18.76
2023-05-05T14:42:04.818Z,18.64
2023-05-05T14:44:55.502Z,17.82
2023-05-05T14:46:55.183Z,17.87
2023-05-05T14:48:55.053Z,17.59
2023-05-05T14:50:55.282Z,17.79
2023-05-05T14:52:55.073Z,17.83
2023-05-05T14:54:55.100Z,17.71
2023-05-05T14:56:55.058Z,17.67
2023-05-05T14:58:55.303Z,17.83
2023-05-05T15:00:56.523Z,17.8
2023-05-05T15:02:56.629Z,18.14
2023-05-05T15:04:56.712Z,18.05
2023-05-05T15:06:56.775Z,17.95
2023-05-05T15:08:56.745Z,17.84
2023-05-05T15:10:56.669Z,16.95
2023-05-05T15:12:56.706Z,16.93
2023-05-05T15:15:43.842Z,17.5
2023-05-05T15:17:43.845Z,17.04
2023-05-05T15:19:43.813Z,17.03
2023-05-05T15:21:43.793Z,17.4
2023-05-05T15:23:43.848Z,16.85
2023-05-05T15:25:43.803Z,16.61
2023-05-05T15:27:43.884Z,16.74
2023-05-05T15:30:49.005Z,16.71
2023-05-05T15:32:49.041Z,16.79
2023-05-05T15:34:50.308Z,16.74
2023-05-05T15:36:48.999Z,16.3
2023-05-05T15:38:49.075Z,16.43
2023-05-05T15:40:50.310Z,16.52
2023-05-05T15:42:49.041Z,16.64
2023-05-05T15:46:01.531Z,16.55
2023-05-05T15:48:01.574Z,16.79
2023-05-05T15:50:01.485Z,16.53
2023-05-05T15:52:01.596Z,16.03
2023-05-05T15:54:01.577Z,16.58
2023-05-05T15:56:01.516Z,16.28
2023-05-05T15:58:01.474Z,16.54
2023-05-05T16:01:03.570Z,16.68
2023-05-05T16:03:03.558Z,16.61
2023-05-05T16:05:03.758Z,16.67
2023-05-05T16:07:03.417Z,16.67
2023-05-05T16:09:03.452Z,16.56
2023-05-05T16:11:03.605Z,16.73
2023-05-05T16:13:03.456Z,16.67
2023-05-05T16:16:28.770Z,16.85
2023-05-05T16:18:28.680Z,16.83
2023-05-05T16:20:28.739Z,16.72
2023-05-05T16:22:28.689Z,16.58
2023-05-05T16:24:28.840Z,16.52
2023-05-05T16:26:28.872Z,16.47
2023-05-05T16:28:28.681Z,16.27
2023-05-05T16:31:53.501Z,15.43
2023-05-05T16:33:53.492Z,15.6
2023-05-05T16:35:53.460Z,15.58
2023-05-05T16:37:53.406Z,15.87
2023-05-05T16:39:53.480Z,15.93
2023-05-05T16:41:53.416Z,15.59
2023-05-05T16:43:53.588Z,15.56
2023-05-05T16:46:13.753Z,15.65
2023-05-05T16:48:13.898Z,15.24
2023-05-05T16:50:13.774Z,15.57
2023-05-05T16:52:13.714Z,15.78
2023-05-05T16:54:13.761Z,15.87
2023-05-05T16:56:13.726Z,15.62
2023-05-05T16:58:13.856Z,15.61
2023-05-05T17:00:13.864Z,15.34
2023-05-05T17:02:02.322Z,15.27
2023-05-05T17:04:02.266Z,15.16
2023-05-05T17:06:02.222Z,15.16
2023-05-05T17:08:02.319Z,14.94
2023-05-05T17:10:02.288Z,15.14
2023-05-05T17:12:02.499Z,14.86
2023-05-05T17:14:02.344Z,14.72
2023-05-05T17:16:57.268Z,14.29
2023-05-05T17:18:57.268Z,14.51
2023-05-05T17:20:56.960Z,14.58
2023-05-05T17:22:57.209Z,14.59
2023-05-05T17:24:56.950Z,14.43
2023-05-05T17:26:57.042Z,14.61
2023-05-05T17:28:56.976Z,14.35
2023-05-05T17:31:49.601Z,14.42
2023-05-05T17:33:49.266Z,14.39
2023-05-05T17:35:49.320Z,14.48
2023-05-05T17:37:49.505Z,14.48
2023-05-05T17:39:49.276Z,14.46
2023-05-05T17:41:49.308Z,14.41
2023-05-05T17:43:49.419Z,14.48
2023-05-05T17:45:49.302Z,14.57
2023-05-05T17:47:09.233Z,14.49
2023-05-05T17:49:09.314Z,14.4
2023-05-05T17:51:09.179Z,14.37
2023-05-05T17:53:09.347Z,14.13
2023-05-05T17:55:09.310Z,14.12
2023-05-05T17:57:09.177Z,14.12
2023-05-05T17:59:09.271Z,14.08
2023-05-05T18:02:05.184Z,14.03
2023-05-05T18:04:05.369Z,13.98
2023-05-05T18:06:05.124Z,13.96
2023-05-05T18:08:05.130Z,13.87
2023-05-05T18:10:05.286Z,13.91
2023-05-05T18:12:05.114Z,13.93
2023-05-05T18:14:05.134Z,13.68
2023-05-05T18:16:05.222Z,13.82
2023-05-05T18:18:10.333Z,13.91
2023-05-05T18:20:10.591Z,13.9
2023-05-05T18:22:10.345Z,13.93
2023-05-05T18:24:19.033Z,13.59
2023-05-05T18:26:10.305Z,13.67
2023-05-05T18:28:10.542Z,13.66
2023-05-05T18:30:10.505Z,13.65
2023-05-05T18:33:01.849Z,13.52
2023-05-05T18:35:01.828Z,13.6
2023-05-05T18:37:01.798Z,13.34
2023-05-05T18:39:01.747Z,13.31
2023-05-05T18:41:01.794Z,13.41
2023-05-05T18:43:01.847Z,13.42
2023-05-05T18:45:01.845Z,13.32
2023-05-05T18:47:54.897Z,13.25
2023-05-05T18:49:54.847Z,13.11
2023-05-05T18:51:54.806Z,13.04
2023-05-05T18:53:54.830Z,12.84
2023-05-05T18:55:54.744Z,12.97
2023-05-05T18:57:54.778Z,13.02
2023-05-05T18:59:54.763Z,12.95
2023-05-05T19:03:29.804Z,13.02
2023-05-05T19:05:29.811Z,13.02
2023-05-05T19:09:29.912Z,12.99
2023-05-05T19:11:29.868Z,12.89
2023-05-05T19:13:29.751Z,12.81
2023-05-05T19:15:29.816Z,12.75
2023-05-05T19:18:44.402Z,12.66
2023-05-05T19:20:44.380Z,12.6
2023-05-05T19:22:44.516Z,12.49
2023-05-05T19:24:44.379Z,12.57
2023-05-05T19:26:44.417Z,12.61
2023-05-05T19:28:44.541Z,12.61
2023-05-05T19:30:44.477Z,12.54
2023-05-05T19:33:19.037Z,12.43
2023-05-05T19:35:19.260Z,12.43
2023-05-05T19:37:19.136Z,12.43
2023-05-05T19:39:19.088Z,12.43
2023-05-05T19:41:19.356Z,12.36
2023-05-05T19:43:19.162Z,12.31
2023-05-05T19:45:19.257Z,12.31
2023-05-05T19:48:57.584Z,12.2
2023-05-05T19:50:57.658Z,12.21
2023-05-05T19:52:57.642Z,12.14
2023-05-05T19:54:57.772Z,12.11
2023-05-05T19:56:57.789Z,12.08
2023-05-05T19:58:57.679Z,12.06
2023-05-05T20:00:57.665Z,12.04
2023-05-05T20:03:50.040Z,12.01
2023-05-05T20:05:49.927Z,11.84
2023-05-05T20:07:50.062Z,11.82
2023-05-05T20:09:49.879Z,11.85
2023-05-05T20:11:49.981Z,11.8
2023-05-05T20:13:49.823Z,11.79
2023-05-05T20:15:50.052Z,11.79
2023-05-05T20:19:02.240Z,11.7
2023-05-05T20:21:02.166Z,11.73
2023-05-05T20:23:02.284Z,11.71
2023-05-05T20:25:02.217Z,11.6
2023-05-05T20:27:02.227Z,11.63
2023-05-05T20:29:02.284Z,11.61
2023-05-05T20:31:02.318Z,11.62
2023-05-05T20:34:08.441Z,11.6
2023-05-05T20:36:07.670Z,11.57
2023-05-05T20:38:07.756Z,11.46
2023-05-05T20:40:07.846Z,11.24
2023-05-05T20:42:07.755Z,11.31
2023-05-05T20:44:07.879Z,11.38
2023-05-05T20:46:07.663Z,11.27
2023-05-05T20:48:58.852Z,11.25
2023-05-05T20:50:58.902Z,11.3
2023-05-05T20:52:58.898Z,11.31
2023-05-05T20:54:58.919Z,11.33
2023-05-05T20:56:58.829Z,11.29
2023-05-05T20:58:58.768Z,11.2
2023-05-05T21:00:58.983Z,11.23
2023-05-05T21:02:58.841Z,11.21
2023-05-05T21:04:23.638Z,11.22
2023-05-05T21:06:23.580Z,11.28
2023-05-05T21:08:23.583Z,11.31
2023-05-05T21:10:23.570Z,11.25
2023-05-05T21:12:23.643Z,11.21
2023-05-05T21:14:23.605Z,11.18
2023-05-05T21:16:23.710Z,11.15
2023-05-05T21:19:23.817Z,10.88
2023-05-05T21:21:23.860Z,10.97
2023-05-05T21:23:23.846Z,11
2023-05-05T21:25:23.872Z,10.96
2023-05-05T21:27:23.816Z,10.98
2023-05-05T21:29:23.846Z,10.99
2023-05-05T21:31:23.799Z,11.03
2023-05-05T21:33:23.912Z,11.03
2023-05-05T21:35:06.024Z,11.08
2023-05-05T21:37:06.148Z,11.1
2023-05-05T21:39:06.012Z,11.08
2023-05-05T21:41:06.062Z,11.01
2023-05-05T21:43:06.069Z,10.97
2023-05-05T21:45:06.046Z,10.92
2023-05-05T21:47:06.006Z,10.91
2023-05-05T21:50:09.753Z,10.95
2023-05-05T21:52:09.723Z,10.89
2023-05-05T21:54:09.638Z,10.75
2023-05-05T21:56:09.642Z,10.7
2023-05-05T21:58:09.642Z,10.75
2023-05-05T22:00:09.840Z,10.76
2023-05-05T22:02:09.756Z,10.72
2023-05-05T22:05:17.439Z,10.69
2023-05-05T22:07:17.314Z,10.64
2023-05-05T22:09:17.290Z,10.63
2023-05-05T22:11:17.335Z,10.61
2023-05-05T22:13:17.448Z,10.58
2023-05-05T22:15:17.307Z,10.53
2023-05-05T22:17:17.335Z,10.46
2023-05-05T22:20:06.727Z,10.49
2023-05-05T22:22:06.642Z,10.48
2023-05-05T22:24:06.481Z,10.49
2023-05-05T22:26:06.465Z,10.43
2023-05-05T22:28:06.802Z,10.45
2023-05-05T22:30:06.487Z,10.44
2023-05-05T22:32:06.595Z,10.39
2023-05-05T22:36:01.779Z,10.38
2023-05-05T22:38:01.839Z,10.31
2023-05-05T22:40:01.973Z,10.23
2023-05-05T22:42:01.770Z,10.26
2023-05-05T22:44:01.895Z,10.26
2023-05-05T22:46:01.744Z,10.26
2023-05-05T22:48:02.050Z,10.27
2023-05-05T22:50:49.088Z,10.22
2023-05-05T22:52:49.094Z,10.22
2023-05-05T22:54:49.110Z,10.14
2023-05-05T22:56:48.986Z,10.07
2023-05-05T22:58:49.042Z,10.09
2023-05-05T23:00:48.994Z,10.09
2023-05-05T23:02:49.067Z,10.1
2023-05-05T23:06:04.524Z,10.12
2023-05-05T23:08:04.548Z,10.03
2023-05-05T23:10:04.601Z,9.95
2023-05-05T23:12:04.517Z,9.87
2023-05-05T23:14:04.532Z,9.98
2023-05-05T23:16:04.498Z,9.95
2023-05-05T23:18:04.555Z,9.85
2023-05-05T23:21:07.113Z,9.75
2023-05-05T23:23:07.163Z,9.66
2023-05-05T23:25:07.463Z,9.67
2023-05-05T23:27:07.100Z,9.68
2023-05-05T23:29:07.097Z,9.71
2023-05-05T23:31:07.209Z,9.74
2023-05-05T23:33:07.225Z,9.72
2023-05-05T23:36:43.096Z,9.73
2023-05-05T23:38:43.075Z,9.77
2023-05-05T23:40:43.151Z,9.71
2023-05-05T23:42:43.082Z,9.75
2023-05-05T23:44:43.074Z,9.8
2023-05-05T23:46:43.253Z,9.78
2023-05-05T23:48:43.059Z,9.69
2023-05-05T23:51:15.435Z,9.66
2023-05-05T23:53:15.732Z,9.68
2023-05-05T23:55:15.427Z,9.75
2023-05-05T23:57:15.745Z,9.64
2023-05-05T23:59:15.814Z,9.68
